sensor_id;sensor_type;location;lat;lon;timestamp;pressure;altitude;pressure_sealevel;temperature;humidity
64908;BME280;69061;52.236;5.188;2023-07-09T00:00:13;101661.81;;;24.03;70.31
64908;BME280;69061;52.236;5.188;2023-07-09T00:02:41;101661.47;;;24.01;70.28
64908;BME280;69061;52.236;5.188;2023-07-09T00:05:11;101655.72;;;23.99;70.38
64908;BME280;69061;52.236;5.188;2023-07-09T00:07:39;101641.06;;;23.97;70.27
64908;BME280;69061;52.236;5.188;2023-07-09T00:10:15;101649.66;;;23.95;69.97
64908;BME280;69061;52.236;5.188;2023-07-09T00:12:43;101659.00;;;23.94;70.19
64908;BME280;69061;52.236;5.188;2023-07-09T00:15:10;101649.44;;;23.90;69.64
64908;BME280;69061;52.236;5.188;2023-07-09T00:17:37;101657.22;;;23.87;70.13
64908;BME280;69061;52.236;5.188;2023-07-09T00:20:06;101653.13;;;23.83;70.30
64908;BME280;69061;52.236;5.188;2023-07-09T00:22:38;101659.41;;;23.80;70.47
64908;BME280;69061;52.236;5.188;2023-07-09T00:25:07;101657.56;;;23.77;70.45
64908;BME280;69061;52.236;5.188;2023-07-09T00:27:35;101667.31;;;23.74;70.05
64908;BME280;69061;52.236;5.188;2023-07-09T00:30:04;101660.81;;;23.71;70.36
64908;BME280;69061;52.236;5.188;2023-07-09T00:32:31;101661.69;;;23.68;70.09
64908;BME280;69061;52.236;5.188;2023-07-09T00:35:08;101663.66;;;23.68;70.64
64908;BME280;69061;52.236;5.188;2023-07-09T00:37:37;101669.50;;;23.66;70.28
64908;BME280;69061;52.236;5.188;2023-07-09T00:40:08;101666.78;;;23.66;70.55
64908;BME280;69061;52.236;5.188;2023-07-09T00:42:38;101659.50;;;23.63;70.32
64908;BME280;69061;52.236;5.188;2023-07-09T00:45:21;101666.56;;;23.61;70.78
64908;BME280;69061;52.236;5.188;2023-07-09T00:47:52;101670.91;;;23.58;70.44
64908;BME280;69061;52.236;5.188;2023-07-09T00:50:38;101674.81;;;23.57;70.82
64908;BME280;69061;52.236;5.188;2023-07-09T00:53:11;101682.09;;;23.60;70.62
64908;BME280;69061;52.236;5.188;2023-07-09T00:55:44;101687.09;;;23.62;70.29
64908;BME280;69061;52.236;5.188;2023-07-09T00:58:14;101679.28;;;23.64;70.26
64908;BME280;69061;52.236;5.188;2023-07-09T01:00:45;101682.00;;;23.64;69.70
64908;BME280;69061;52.236;5.188;2023-07-09T01:03:19;101674.59;;;23.64;69.33
64908;BME280;69061;52.236;5.188;2023-07-09T01:05:48;101680.34;;;23.66;69.07
64908;BME280;69061;52.236;5.188;2023-07-09T01:08:17;101676.44;;;23.67;69.24
64908;BME280;69061;52.236;5.188;2023-07-09T01:10:44;101672.97;;;23.67;69.16
64908;BME280;69061;52.236;5.188;2023-07-09T01:13:11;101679.16;;;23.67;68.71
64908;BME280;69061;52.236;5.188;2023-07-09T01:15:39;101677.63;;;23.66;68.32
64908;BME280;69061;52.236;5.188;2023-07-09T01:18:07;101681.56;;;23.65;68.40
64908;BME280;69061;52.236;5.188;2023-07-09T01:20:38;101679.59;;;23.66;68.61
64908;BME280;69061;52.236;5.188;2023-07-09T01:23:07;101679.28;;;23.64;68.49
64908;BME280;69061;52.236;5.188;2023-07-09T01:25:37;101681.31;;;23.60;68.80
64908;BME280;69061;52.236;5.188;2023-07-09T01:28:05;101687.19;;;23.58;68.72
64908;BME280;69061;52.236;5.188;2023-07-09T01:30:35;101685.34;;;23.55;68.90
64908;BME280;69061;52.236;5.188;2023-07-09T01:33:02;101678.50;;;23.50;69.01
64908;BME280;69061;52.236;5.188;2023-07-09T01:35:33;101679.69;;;23.49;69.08
64908;BME280;69061;52.236;5.188;2023-07-09T01:38:01;101687.63;;;23.44;69.50
64908;BME280;69061;52.236;5.188;2023-07-09T01:40:29;101679.56;;;23.40;69.47
64908;BME280;69061;52.236;5.188;2023-07-09T01:42:56;101679.34;;;23.34;69.59
64908;BME280;69061;52.236;5.188;2023-07-09T01:45:24;101681.41;;;23.30;69.36
64908;BME280;69061;52.236;5.188;2023-07-09T01:47:51;101683.97;;;23.21;69.33
64908;BME280;69061;52.236;5.188;2023-07-09T01:50:20;101685.59;;;23.18;68.83
64908;BME280;69061;52.236;5.188;2023-07-09T01:52:49;101684.56;;;23.12;69.19
64908;BME280;69061;52.236;5.188;2023-07-09T01:55:17;101690.09;;;23.09;69.51
64908;BME280;69061;52.236;5.188;2023-07-09T01:57:45;101693.31;;;23.03;69.39
64908;BME280;69061;52.236;5.188;2023-07-09T02:00:15;101686.81;;;23.01;69.35
64908;BME280;69061;52.236;5.188;2023-07-09T02:02:44;101694.28;;;22.97;69.94
64908;BME280;69061;52.236;5.188;2023-07-09T02:05:14;101698.28;;;22.92;69.93
64908;BME280;69061;52.236;5.188;2023-07-09T02:07:41;101701.06;;;22.88;70.13
64908;BME280;69061;52.236;5.188;2023-07-09T02:10:08;101692.50;;;22.90;70.50
64908;BME280;69061;52.236;5.188;2023-07-09T02:12:35;101692.19;;;22.88;70.99
64908;BME280;69061;52.236;5.188;2023-07-09T02:15:05;101687.97;;;22.87;70.42
64908;BME280;69061;52.236;5.188;2023-07-09T02:17:31;101686.88;;;22.84;70.71
64908;BME280;69061;52.236;5.188;2023-07-09T02:19:58;101685.34;;;22.83;70.85
64908;BME280;69061;52.236;5.188;2023-07-09T02:22:25;101684.59;;;22.83;70.94
64908;BME280;69061;52.236;5.188;2023-07-09T02:24:52;101693.91;;;22.82;71.03
64908;BME280;69061;52.236;5.188;2023-07-09T02:27:19;101676.22;;;22.77;71.51
64908;BME280;69061;52.236;5.188;2023-07-09T02:29:46;101686.28;;;22.77;71.49
64908;BME280;69061;52.236;5.188;2023-07-09T02:32:18;101698.28;;;22.76;71.71
64908;BME280;69061;52.236;5.188;2023-07-09T02:34:45;101698.28;;;22.76;71.67
64908;BME280;69061;52.236;5.188;2023-07-09T02:37:15;101696.03;;;22.74;71.74
64908;BME280;69061;52.236;5.188;2023-07-09T02:39:43;101688.00;;;22.70;71.77
64908;BME280;69061;52.236;5.188;2023-07-09T02:42:11;101691.13;;;22.69;71.85
64908;BME280;69061;52.236;5.188;2023-07-09T02:44:39;101691.13;;;22.69;72.21
64908;BME280;69061;52.236;5.188;2023-07-09T02:47:07;101688.41;;;22.69;72.17
64908;BME280;69061;52.236;5.188;2023-07-09T02:49:36;101686.56;;;22.66;72.39
64908;BME280;69061;52.236;5.188;2023-07-09T02:52:04;101692.41;;;22.64;72.69
64908;BME280;69061;52.236;5.188;2023-07-09T02:54:31;101683.91;;;22.62;72.78
64908;BME280;69061;52.236;5.188;2023-07-09T02:56:58;101680.03;;;22.63;72.51
64908;BME280;69061;52.236;5.188;2023-07-09T02:59:24;101685.81;;;22.65;73.04
64908;BME280;69061;52.236;5.188;2023-07-09T03:01:53;101698.25;;;22.63;72.84
64908;BME280;69061;52.236;5.188;2023-07-09T03:04:19;101697.16;;;22.60;73.02
64908;BME280;69061;52.236;5.188;2023-07-09T03:06:48;101698.31;;;22.59;72.98
64908;BME280;69061;52.236;5.188;2023-07-09T03:09:15;101694.44;;;22.60;73.54
64908;BME280;69061;52.236;5.188;2023-07-09T03:11:41;101689.78;;;22.61;73.53
64908;BME280;69061;52.236;5.188;2023-07-09T03:14:08;101697.16;;;22.60;73.67
64908;BME280;69061;52.236;5.188;2023-07-09T03:16:35;101700.38;;;22.55;73.22
64908;BME280;69061;52.236;5.188;2023-07-09T03:19:02;101694.09;;;22.58;73.40
64908;BME280;69061;52.236;5.188;2023-07-09T03:21:30;101695.81;;;22.52;73.40
64908;BME280;69061;52.236;5.188;2023-07-09T03:23:58;101698.50;;;22.52;73.49
64908;BME280;69061;52.236;5.188;2023-07-09T03:26:25;101694.28;;;22.51;73.67
64908;BME280;69061;52.236;5.188;2023-07-09T03:28:52;101697.41;;;22.49;74.00
64908;BME280;69061;52.236;5.188;2023-07-09T03:31:20;101697.50;;;22.46;74.18
64908;BME280;69061;52.236;5.188;2023-07-09T03:33:47;101701.81;;;22.43;74.20
64908;BME280;69061;52.236;5.188;2023-07-09T03:36:14;101700.31;;;22.42;74.31
64908;BME280;69061;52.236;5.188;2023-07-09T03:38:41;101696.50;;;22.40;74.50
64908;BME280;69061;52.236;5.188;2023-07-09T03:41:09;101699.19;;;22.40;75.13
64908;BME280;69061;52.236;5.188;2023-07-09T03:43:36;101697.69;;;22.39;74.78
64908;BME280;69061;52.236;5.188;2023-07-09T03:46:03;101699.72;;;22.34;74.98
64908;BME280;69061;52.236;5.188;2023-07-09T03:48:30;101695.41;;;22.37;75.22
64908;BME280;69061;52.236;5.188;2023-07-09T03:50:56;101705.88;;;22.35;74.76
64908;BME280;69061;52.236;5.188;2023-07-09T03:53:23;101705.13;;;22.34;74.85
64908;BME280;69061;52.236;5.188;2023-07-09T03:55:52;101704.41;;;22.30;75.28
64908;BME280;69061;52.236;5.188;2023-07-09T03:58:24;101712.19;;;22.28;75.54
64908;BME280;69061;52.236;5.188;2023-07-09T04:00:51;101716.09;;;22.27;75.66
64908;BME280;69061;52.236;5.188;2023-07-09T04:03:19;101713.03;;;22.25;75.46
64908;BME280;69061;52.236;5.188;2023-07-09T04:05:47;101705.78;;;22.22;75.60
64908;BME280;69061;52.236;5.188;2023-07-09T04:08:14;101713.78;;;22.26;75.65
64908;BME280;69061;52.236;5.188;2023-07-09T04:10:40;101710.75;;;22.24;75.82
64908;BME280;69061;52.236;5.188;2023-07-09T04:13:07;101713.03;;;22.25;75.95
64908;BME280;69061;52.236;5.188;2023-07-09T04:15:35;101717.59;;;22.28;75.91
64908;BME280;69061;52.236;5.188;2023-07-09T04:18:02;101724.56;;;22.29;75.95
64908;BME280;69061;52.236;5.188;2023-07-09T04:20:29;101722.94;;;22.32;76.12
64908;BME280;69061;52.236;5.188;2023-07-09T04:22:55;101725.22;;;22.33;76.00
64908;BME280;69061;52.236;5.188;2023-07-09T04:25:22;101718.22;;;22.36;75.91
64908;BME280;69061;52.236;5.188;2023-07-09T04:27:49;101719.34;;;22.39;76.23
64908;BME280;69061;52.236;5.188;2023-07-09T04:30:15;101715.44;;;22.40;75.94
64908;BME280;69061;52.236;5.188;2023-07-09T04:32:44;101721.97;;;22.42;75.52
64908;BME280;69061;52.236;5.188;2023-07-09T04:35:11;101717.31;;;22.43;75.31
64908;BME280;69061;52.236;5.188;2023-07-09T04:37:38;101717.66;;;22.45;75.28
64908;BME280;69061;52.236;5.188;2023-07-09T04:40:07;101724.94;;;22.48;75.54
64908;BME280;69061;52.236;5.188;2023-07-09T04:42:36;101722.53;;;22.50;76.06
64908;BME280;69061;52.236;5.188;2023-07-09T04:45:04;101725.59;;;22.52;75.44
64908;BME280;69061;52.236;5.188;2023-07-09T04:47:31;101726.72;;;22.54;75.69
64908;BME280;69061;52.236;5.188;2023-07-09T04:49:59;101726.59;;;22.58;76.40
64908;BME280;69061;52.236;5.188;2023-07-09T04:52:25;101724.56;;;22.62;76.18
64908;BME280;69061;52.236;5.188;2023-07-09T04:54:52;101714.44;;;22.66;76.29
64908;BME280;69061;52.236;5.188;2023-07-09T04:57:19;101713.56;;;22.69;75.75
64908;BME280;69061;52.236;5.188;2023-07-09T04:59:46;101716.59;;;22.71;75.97
64908;BME280;69061;52.236;5.188;2023-07-09T05:02:14;101711.09;;;22.75;76.19
64908;BME280;69061;52.236;5.188;2023-07-09T05:04:41;101708.75;;;22.77;76.29
64908;BME280;69061;52.236;5.188;2023-07-09T05:07:08;101715.56;;;22.82;76.01
64908;BME280;69061;52.236;5.188;2023-07-09T05:09:35;101703.88;;;22.85;76.76
64908;BME280;69061;52.236;5.188;2023-07-09T05:12:02;101709.63;;;22.87;76.73
64908;BME280;69061;52.236;5.188;2023-07-09T05:14:29;101714.19;;;22.90;76.29
64908;BME280;69061;52.236;5.188;2023-07-09T05:16:55;101710.97;;;22.95;76.28
64908;BME280;69061;52.236;5.188;2023-07-09T05:19:22;101707.41;;;22.98;76.23
64908;BME280;69061;52.236;5.188;2023-07-09T05:21:49;101712.31;;;23.03;76.80
64908;BME280;69061;52.236;5.188;2023-07-09T05:24:17;101711.78;;;23.09;76.31
64908;BME280;69061;52.236;5.188;2023-07-09T05:26:44;101710.53;;;23.13;76.09
64908;BME280;69061;52.236;5.188;2023-07-09T05:29:10;101703.81;;;23.18;75.93
64908;BME280;69061;52.236;5.188;2023-07-09T05:31:37;101711.75;;;23.25;76.20
64908;BME280;69061;52.236;5.188;2023-07-09T05:34:04;101703.84;;;23.31;75.74
64908;BME280;69061;52.236;5.188;2023-07-09T05:36:31;101706.25;;;23.42;75.49
64908;BME280;69061;52.236;5.188;2023-07-09T05:38:58;101706.03;;;23.49;75.25
64908;BME280;69061;52.236;5.188;2023-07-09T05:41:26;101703.47;;;23.58;75.11
64908;BME280;69061;52.236;5.188;2023-07-09T05:43:53;101709.00;;;23.67;74.91
64908;BME280;69061;52.236;5.188;2023-07-09T05:46:22;101710.31;;;23.76;74.81
64908;BME280;69061;52.236;5.188;2023-07-09T05:48:49;101711.19;;;23.85;74.42
64908;BME280;69061;52.236;5.188;2023-07-09T05:51:15;101707.97;;;23.91;73.59
64908;BME280;69061;52.236;5.188;2023-07-09T05:53:42;101710.78;;;24.00;72.28
64908;BME280;69061;52.236;5.188;2023-07-09T05:56:09;101713.16;;;24.11;71.66
64908;BME280;69061;52.236;5.188;2023-07-09T05:58:37;101713.28;;;24.20;72.12
64908;BME280;69061;52.236;5.188;2023-07-09T06:01:04;101718.81;;;24.29;71.48
64908;BME280;69061;52.236;5.188;2023-07-09T06:03:31;101719.66;;;24.39;71.27
64908;BME280;69061;52.236;5.188;2023-07-09T06:05:58;101727.00;;;24.51;71.49
64908;BME280;69061;52.236;5.188;2023-07-09T06:08:25;101728.97;;;24.64;72.10
64908;BME280;69061;52.236;5.188;2023-07-09T06:10:54;101724.06;;;24.71;71.58
64908;BME280;69061;52.236;5.188;2023-07-09T06:13:21;101722.81;;;24.85;69.96
64908;BME280;69061;52.236;5.188;2023-07-09T06:15:51;101726.38;;;24.95;69.57
64908;BME280;69061;52.236;5.188;2023-07-09T06:18:19;101729.16;;;25.04;69.55
64908;BME280;69061;52.236;5.188;2023-07-09T06:20:47;101730.09;;;25.11;70.23
64908;BME280;69061;52.236;5.188;2023-07-09T06:23:14;101740.94;;;25.24;69.62
64908;BME280;69061;52.236;5.188;2023-07-09T06:25:42;101742.19;;;25.32;67.97
64908;BME280;69061;52.236;5.188;2023-07-09T06:28:08;101735.78;;;25.38;67.38
64908;BME280;69061;52.236;5.188;2023-07-09T06:30:36;101739.59;;;25.50;66.60
64908;BME280;69061;52.236;5.188;2023-07-09T06:33:04;101734.22;;;25.60;65.92
64908;BME280;69061;52.236;5.188;2023-07-09T06:35:31;101741.53;;;25.72;65.25
64908;BME280;69061;52.236;5.188;2023-07-09T06:37:58;101743.53;;;25.81;64.62
64908;BME280;69061;52.236;5.188;2023-07-09T06:40:24;101747.06;;;25.91;64.41
64908;BME280;69061;52.236;5.188;2023-07-09T06:42:51;101741.19;;;26.01;63.95
64908;BME280;69061;52.236;5.188;2023-07-09T06:45:18;101742.47;;;26.10;63.59
64908;BME280;69061;52.236;5.188;2023-07-09T06:47:45;101750.97;;;26.21;63.51
64908;BME280;69061;52.236;5.188;2023-07-09T06:50:13;101749.31;;;26.33;63.51
64908;BME280;69061;52.236;5.188;2023-07-09T06:52:39;101746.94;;;26.44;63.00
64908;BME280;69061;52.236;5.188;2023-07-09T06:55:07;101749.53;;;26.57;62.21
64908;BME280;69061;52.236;5.188;2023-07-09T06:57:34;101751.06;;;26.67;61.70
64908;BME280;69061;52.236;5.188;2023-07-09T07:00:00;101748.66;;;26.79;61.45
64908;BME280;69061;52.236;5.188;2023-07-09T07:02:27;101753.66;;;26.89;61.67
64908;BME280;69061;52.236;5.188;2023-07-09T07:04:54;101753.97;;;27.01;60.99
64908;BME280;69061;52.236;5.188;2023-07-09T07:07:22;101755.59;;;27.17;60.50
64908;BME280;69061;52.236;5.188;2023-07-09T07:09:49;101754.69;;;27.29;59.71
64908;BME280;69061;52.236;5.188;2023-07-09T07:12:23;101750.13;;;27.35;59.42
64908;BME280;69061;52.236;5.188;2023-07-09T07:14:50;101759.38;;;27.47;59.88
64908;BME280;69061;52.236;5.188;2023-07-09T07:17:17;101752.38;;;27.55;60.32
64908;BME280;69061;52.236;5.188;2023-07-09T07:19:44;101761.28;;;27.65;60.56
64908;BME280;69061;52.236;5.188;2023-07-09T07:22:10;101761.72;;;27.73;61.51
64908;BME280;69061;52.236;5.188;2023-07-09T07:24:39;101759.28;;;27.75;62.29
64908;BME280;69061;52.236;5.188;2023-07-09T07:27:06;101762.91;;;27.81;62.29
64908;BME280;69061;52.236;5.188;2023-07-09T07:29:33;101769.09;;;27.91;62.89
64908;BME280;69061;52.236;5.188;2023-07-09T07:32:00;101770.44;;;27.96;63.30
64908;BME280;69061;52.236;5.188;2023-07-09T07:34:26;101773.34;;;28.01;63.33
64908;BME280;69061;52.236;5.188;2023-07-09T07:36:53;101771.66;;;28.04;63.79
64908;BME280;69061;52.236;5.188;2023-07-09T07:39:19;101768.72;;;28.08;63.35
64908;BME280;69061;52.236;5.188;2023-07-09T07:41:47;101769.63;;;28.14;62.83
64908;BME280;69061;52.236;5.188;2023-07-09T07:44:16;101765.22;;;28.16;61.58
64908;BME280;69061;52.236;5.188;2023-07-09T07:46:44;101783.41;;;28.19;59.50
64908;BME280;69061;52.236;5.188;2023-07-09T07:49:11;101778.25;;;28.21;59.38
64908;BME280;69061;52.236;5.188;2023-07-09T07:51:38;101786.44;;;28.21;58.91
64908;BME280;69061;52.236;5.188;2023-07-09T07:54:06;101780.03;;;28.25;58.61
64908;BME280;69061;52.236;5.188;2023-07-09T07:56:34;101780.00;;;28.34;58.25
64908;BME280;69061;52.236;5.188;2023-07-09T07:59:02;101781.91;;;28.43;58.74
64908;BME280;69061;52.236;5.188;2023-07-09T08:01:29;101772.44;;;28.53;58.38
64908;BME280;69061;52.236;5.188;2023-07-09T08:03:56;101766.78;;;28.56;58.09
64908;BME280;69061;52.236;5.188;2023-07-09T08:06:23;101774.19;;;28.65;59.28
64908;BME280;69061;52.236;5.188;2023-07-09T08:08:50;101781.13;;;28.76;58.87
64908;BME280;69061;52.236;5.188;2023-07-09T08:11:16;101778.59;;;28.87;58.45
64908;BME280;69061;52.236;5.188;2023-07-09T08:13:43;101780.78;;;28.98;57.64
64908;BME280;69061;52.236;5.188;2023-07-09T08:16:11;101778.44;;;29.05;56.71
64908;BME280;69061;52.236;5.188;2023-07-09T08:18:39;101776.53;;;29.12;55.75
64908;BME280;69061;52.236;5.188;2023-07-09T08:21:06;101778.63;;;29.17;56.19
64908;BME280;69061;52.236;5.188;2023-07-09T08:23:33;101772.41;;;29.16;55.00
64908;BME280;69061;52.236;5.188;2023-07-09T08:26:01;101768.16;;;29.15;54.27
64908;BME280;69061;52.236;5.188;2023-07-09T08:28:28;101778.06;;;29.13;53.24
64908;BME280;69061;52.236;5.188;2023-07-09T08:30:55;101780.06;;;29.12;51.98
64908;BME280;69061;52.236;5.188;2023-07-09T08:33:24;101789.00;;;29.13;51.76
64908;BME280;69061;52.236;5.188;2023-07-09T08:35:52;101776.84;;;29.14;51.32
64908;BME280;69061;52.236;5.188;2023-07-09T08:38:20;101778.72;;;29.22;50.53
64908;BME280;69061;52.236;5.188;2023-07-09T08:40:56;101780.72;;;29.22;50.95
64908;BME280;69061;52.236;5.188;2023-07-09T08:43:32;101774.75;;;29.23;49.56
64908;BME280;69061;52.236;5.188;2023-07-09T08:46:03;101775.66;;;29.30;49.98
64908;BME280;69061;52.236;5.188;2023-07-09T08:48:37;101778.00;;;29.37;51.01
64908;BME280;69061;52.236;5.188;2023-07-09T08:51:12;101778.09;;;29.43;50.43
64908;BME280;69061;52.236;5.188;2023-07-09T08:53:46;101774.03;;;29.53;50.34
64908;BME280;69061;52.236;5.188;2023-07-09T08:56:15;101769.50;;;29.65;50.24
64908;BME280;69061;52.236;5.188;2023-07-09T08:58:43;101763.31;;;29.70;49.70
64908;BME280;69061;52.236;5.188;2023-07-09T09:01:17;101762.03;;;29.65;49.71
64908;BME280;69061;52.236;5.188;2023-07-09T09:03:48;101763.81;;;29.68;49.90
64908;BME280;69061;52.236;5.188;2023-07-09T09:06:19;101761.69;;;29.78;50.67
64908;BME280;69061;52.236;5.188;2023-07-09T09:08:55;101765.13;;;29.88;51.05
64908;BME280;69061;52.236;5.188;2023-07-09T09:11:33;101756.31;;;29.99;50.14
64908;BME280;69061;52.236;5.188;2023-07-09T09:14:03;101761.19;;;30.10;49.50
64908;BME280;69061;52.236;5.188;2023-07-09T09:16:35;101764.75;;;30.16;49.88
64908;BME280;69061;52.236;5.188;2023-07-09T09:19:18;101763.03;;;30.18;49.43
64908;BME280;69061;52.236;5.188;2023-07-09T09:21:48;101754.69;;;30.28;49.41
64908;BME280;69061;52.236;5.188;2023-07-09T09:24:26;101765.78;;;30.39;49.03
64908;BME280;69061;52.236;5.188;2023-07-09T09:26:55;101755.97;;;30.47;48.91
64908;BME280;69061;52.236;5.188;2023-07-09T09:29:24;101752.31;;;30.56;48.91
64908;BME280;69061;52.236;5.188;2023-07-09T09:31:53;101749.41;;;30.65;48.76
64908;BME280;69061;52.236;5.188;2023-07-09T09:34:25;101743.50;;;30.72;48.89
64908;BME280;69061;52.236;5.188;2023-07-09T09:36:53;101740.06;;;30.78;49.03
64908;BME280;69061;52.236;5.188;2023-07-09T09:39:20;101730.91;;;30.86;49.47
64908;BME280;69061;52.236;5.188;2023-07-09T09:41:47;101732.53;;;30.99;49.04
64908;BME280;69061;52.236;5.188;2023-07-09T09:44:19;101729.63;;;31.08;49.33
64908;BME280;69061;52.236;5.188;2023-07-09T09:46:48;101739.00;;;31.22;48.83
64908;BME280;69061;52.236;5.188;2023-07-09T09:49:15;101741.59;;;31.31;47.98
64908;BME280;69061;52.236;5.188;2023-07-09T09:51:46;101742.63;;;31.39;46.72
64908;BME280;69061;52.236;5.188;2023-07-09T09:54:17;101736.69;;;31.47;46.37
64908;BME280;69061;52.236;5.188;2023-07-09T09:56:44;101728.75;;;31.54;46.23
64908;BME280;69061;52.236;5.188;2023-07-09T09:59:18;101737.88;;;31.66;45.97
64908;BME280;69061;52.236;5.188;2023-07-09T10:01:46;101741.13;;;31.70;45.22
64908;BME280;69061;52.236;5.188;2023-07-09T10:04:17;101741.38;;;31.72;44.52
64908;BME280;69061;52.236;5.188;2023-07-09T10:06:49;101732.44;;;31.78;45.12
64908;BME280;69061;52.236;5.188;2023-07-09T10:09:24;101744.47;;;31.86;45.13
64908;BME280;69061;52.236;5.188;2023-07-09T10:11:58;101734.00;;;31.96;46.13
64908;BME280;69061;52.236;5.188;2023-07-09T10:14:34;101738.56;;;32.04;45.30
64908;BME280;69061;52.236;5.188;2023-07-09T10:17:10;101738.91;;;32.18;45.15
64908;BME280;69061;52.236;5.188;2023-07-09T10:19:47;101735.69;;;32.25;44.61
64908;BME280;69061;52.236;5.188;2023-07-09T10:22:23;101731.94;;;32.28;44.78
64908;BME280;69061;52.236;5.188;2023-07-09T10:24:57;101729.19;;;32.34;44.29
64908;BME280;69061;52.236;5.188;2023-07-09T10:27:33;101741.19;;;32.25;45.12
64908;BME280;69061;52.236;5.188;2023-07-09T10:30:16;101744.09;;;32.10;45.18
64908;BME280;69061;52.236;5.188;2023-07-09T10:32:55;101751.53;;;31.98;45.32
64908;BME280;69061;52.236;5.188;2023-07-09T10:35:27;101754.25;;;31.93;46.55
64908;BME280;69061;52.236;5.188;2023-07-09T10:38:14;101758.00;;;31.95;46.19
64908;BME280;69061;52.236;5.188;2023-07-09T10:40:49;101756.78;;;31.96;46.36
64908;BME280;69061;52.236;5.188;2023-07-09T10:43:23;101753.50;;;31.92;46.31
64908;BME280;69061;52.236;5.188;2023-07-09T10:45:55;101749.75;;;31.89;46.51
64908;BME280;69061;52.236;5.188;2023-07-09T10:48:32;101757.25;;;31.95;47.67
64908;BME280;69061;52.236;5.188;2023-07-09T10:51:00;101758.31;;;32.03;46.18
64908;BME280;69061;52.236;5.188;2023-07-09T10:53:32;101760.50;;;31.99;45.11
64908;BME280;69061;52.236;5.188;2023-07-09T10:56:05;101754.75;;;31.97;45.24
64908;BME280;69061;52.236;5.188;2023-07-09T10:58:39;101742.78;;;32.00;44.37
64908;BME280;69061;52.236;5.188;2023-07-09T11:01:07;101734.81;;;32.02;44.07
64908;BME280;69061;52.236;5.188;2023-07-09T11:03:38;101741.03;;;31.97;43.60
64908;BME280;69061;52.236;5.188;2023-07-09T11:06:18;101741.00;;;31.91;43.55
64908;BME280;69061;52.236;5.188;2023-07-09T11:08:55;101747.19;;;31.80;43.89
64908;BME280;69061;52.236;5.188;2023-07-09T11:11:29;101744.63;;;31.71;44.08
64908;BME280;69061;52.236;5.188;2023-07-09T11:14:02;101749.97;;;31.54;44.22
64908;BME280;69061;52.236;5.188;2023-07-09T11:16:36;101761.34;;;31.35;43.31
64908;BME280;69061;52.236;5.188;2023-07-09T11:19:15;101757.84;;;31.09;44.14
64908;BME280;69061;52.236;5.188;2023-07-09T11:21:45;101753.72;;;30.98;44.37
64908;BME280;69061;52.236;5.188;2023-07-09T11:24:31;101737.97;;;30.93;44.19
64908;BME280;69061;52.236;5.188;2023-07-09T11:26:58;101738.25;;;30.95;44.14
64908;BME280;69061;52.236;5.188;2023-07-09T11:29:26;101731.84;;;31.04;43.70
64908;BME280;69061;52.236;5.188;2023-07-09T11:31:54;101721.47;;;31.14;43.14
64908;BME280;69061;52.236;5.188;2023-07-09T11:34:27;101738.03;;;31.25;42.79
64908;BME280;69061;52.236;5.188;2023-07-09T11:36:57;101735.31;;;31.31;42.35
64908;BME280;69061;52.236;5.188;2023-07-09T11:39:29;101730.41;;;31.40;43.35
64908;BME280;69061;52.236;5.188;2023-07-09T11:41:57;101738.72;;;31.52;43.08
64908;BME280;69061;52.236;5.188;2023-07-09T11:44:26;101730.34;;;31.61;42.71
64908;BME280;69061;52.236;5.188;2023-07-09T11:47:14;101739.25;;;31.56;42.21
64908;BME280;69061;52.236;5.188;2023-07-09T11:49:49;101737.22;;;31.51;42.95
64908;BME280;69061;52.236;5.188;2023-07-09T11:52:20;101735.72;;;31.50;42.71
64908;BME280;69061;52.236;5.188;2023-07-09T11:54:52;101742.19;;;31.47;42.52
64908;BME280;69061;52.236;5.188;2023-07-09T11:57:19;101743.41;;;31.46;42.07
64908;BME280;69061;52.236;5.188;2023-07-09T11:59:46;101749.38;;;31.38;42.73
64908;BME280;69061;52.236;5.188;2023-07-09T12:02:16;101756.34;;;31.34;42.48
64908;BME280;69061;52.236;5.188;2023-07-09T12:04:47;101750.78;;;31.28;42.75
64908;BME280;69061;52.236;5.188;2023-07-09T12:07:15;101760.31;;;31.33;42.75
64908;BME280;69061;52.236;5.188;2023-07-09T12:09:48;101771.06;;;31.36;42.44
64908;BME280;69061;52.236;5.188;2023-07-09T12:12:22;101773.81;;;31.36;42.91
64908;BME280;69061;52.236;5.188;2023-07-09T12:14:50;101771.38;;;31.44;42.94
64908;BME280;69061;52.236;5.188;2023-07-09T12:17:17;101776.22;;;31.55;42.22
64908;BME280;69061;52.236;5.188;2023-07-09T12:19:44;101771.25;;;31.59;41.89
64908;BME280;69061;52.236;5.188;2023-07-09T12:22:21;101775.31;;;31.64;42.70
64908;BME280;69061;52.236;5.188;2023-07-09T12:24:50;101773.91;;;31.80;42.51
64908;BME280;69061;52.236;5.188;2023-07-09T12:27:23;101778.25;;;31.92;41.56
64908;BME280;69061;52.236;5.188;2023-07-09T12:29:53;101776.47;;;31.89;42.44
64908;BME280;69061;52.236;5.188;2023-07-09T12:32:20;101779.44;;;31.85;42.29
64908;BME280;69061;52.236;5.188;2023-07-09T12:34:50;101775.41;;;31.81;42.27
64908;BME280;69061;52.236;5.188;2023-07-09T12:37:18;101780.81;;;31.64;42.57
64908;BME280;69061;52.236;5.188;2023-07-09T12:39:47;101793.63;;;31.46;43.12
64908;BME280;69061;52.236;5.188;2023-07-09T12:42:16;101809.22;;;31.29;44.32
64908;BME280;69061;52.236;5.188;2023-07-09T12:44:44;101813.78;;;31.11;44.78
64908;BME280;69061;52.236;5.188;2023-07-09T12:47:15;101805.28;;;31.09;46.57
64908;BME280;69061;52.236;5.188;2023-07-09T12:49:44;101798.19;;;31.23;45.68
64908;BME280;69061;52.236;5.188;2023-07-09T12:52:15;101801.69;;;31.23;44.15
64908;BME280;69061;52.236;5.188;2023-07-09T12:54:52;101793.81;;;31.11;44.88
64908;BME280;69061;52.236;5.188;2023-07-09T12:57:21;101795.31;;;31.12;44.15
64908;BME280;69061;52.236;5.188;2023-07-09T12:59:50;101806.25;;;31.06;43.37